Time;durP1;ratioP1;P1;durP2;ratioP2;P2;SDS_P1;SDS_P2;PMS_P1;PMS_P2;Temp;Humidity;BMP_temperature;BMP_pressure;BME280_temperature;BME280_humidity;BME280_pressure;Samples;Min_cycle;Max_cycle;Signal;HPM_P1;HPM_P2
2021/11/13 00:02:50;;;;;;;106.43;43.00;;;;;;;5.65;100.00;100735.30;3382481;85;98875;-85
2021/11/13 00:07:52;;;;;;;96.80;40.67;;;;;;;5.66;100.00;100727.33;3356292;84;99363;-84
2021/11/13 00:12:55;;;;;;;102.78;43.40;;;;;;;5.65;100.00;100713.45;3375109;85;99114;-84
2021/11/13 00:17:56;;;;;;;108.17;43.42;;;;;;;5.65;100.00;100718.36;3379531;85;99254;-85
2021/11/13 00:22:58;;;;;;;102.47;41.25;;;;;;;5.67;100.00;100727.00;3385868;85;99173;-86
2021/11/13 00:27:59;;;;;;;98.12;37.40;;;;;;;5.64;100.00;100713.22;3375576;85;50341;-84
2021/11/13 00:33:00;;;;;;;103.50;43.63;;;;;;;5.64;100.00;100712.67;3353930;86;99151;-85
2021/11/13 00:38:01;;;;;;;103.53;40.05;;;;;;;5.63;100.00;100706.17;3360399;86;99253;-86
2021/11/13 00:43:02;;;;;;;110.73;43.57;;;;;;;5.63;100.00;100717.88;3364803;85;99301;-85
2021/11/13 00:48:04;;;;;;;104.10;43.57;;;;;;;5.64;100.00;100709.94;3366392;85;99246;-85
2021/11/13 00:53:05;;;;;;;106.65;45.35;;;;;;;5.63;100.00;100697.39;3364746;85;99218;-86
2021/11/13 00:58:06;;;;;;;111.23;44.73;;;;;;;5.60;100.00;100687.72;3370340;85;33171;-85
2021/11/13 01:03:08;;;;;;;104.17;42.63;;;;;;;5.64;100.00;100695.48;3289784;88;99200;-85
2021/11/13 01:08:08;;;;;;;106.53;41.20;;;;;;;5.64;100.00;100677.17;3336059;85;99506;-83
2021/11/13 01:13:09;;;;;;;114.30;44.00;;;;;;;5.65;100.00;100661.02;3341339;86;99252;-85
2021/11/13 01:18:11;;;;;;;107.80;43.40;;;;;;;5.63;100.00;100666.58;3363965;86;99188;-84
2021/11/13 01:23:12;;;;;;;98.13;40.90;;;;;;;5.64;100.00;100673.08;3333979;86;99258;-85
2021/11/13 01:28:13;;;;;;;105.93;42.73;;;;;;;5.67;100.00;100679.22;3372446;85;41304;-83
2021/11/13 01:33:13;;;;;;;105.70;41.50;;;;;;;5.67;100.00;100680.58;3394654;85;99106;-85
2021/11/13 01:38:15;;;;;;;102.02;41.95;;;;;;;5.68;100.00;100665.78;3387189;85;99407;-86
2021/11/13 01:43:16;;;;;;;113.80;43.77;;;;;;;5.65;100.00;100649.28;3377254;85;99351;-85
2021/11/13 01:48:17;;;;;;;100.30;40.73;;;;;;;5.68;100.00;100654.86;3399272;85;99248;-85
2021/11/13 01:53:18;;;;;;;111.83;42.47;;;;;;;5.70;100.00;100645.78;3380569;85;99310;-84
2021/11/13 01:58:18;;;;;;;114.07;44.67;;;;;;;5.70;100.00;100659.99;3401154;85;26056;-85
2021/11/13 02:03:22;;;;;;;118.82;44.38;;;;;;;5.70;100.00;100636.23;3381407;84;99104;-84
2021/11/13 02:08:23;;;;;;;125.73;46.57;;;;;;;5.68;100.00;100607.08;3397278;85;99054;-86
2021/11/13 02:13:23;;;;;;;110.90;45.50;;;;;;;5.69;100.00;100602.42;3378229;85;99379;-84
2021/11/13 02:18:24;;;;;;;116.57;47.77;;;;;;;5.71;100.00;100636.45;3390063;85;99347;-83
2021/11/13 02:23:26;;;;;;;111.43;45.53;;;;;;;5.73;100.00;100618.37;3390043;85;99124;-84
2021/11/13 02:28:27;;;;;;;132.33;50.77;;;;;;;5.72;100.00;100606.64;3393591;85;26321;-86
2021/11/13 02:33:28;;;;;;;110.10;43.33;;;;;;;5.74;100.00;100624.05;3376593;84;99216;-84
2021/11/13 02:38:34;;;;;;;116.83;45.53;;;;;;;5.74;100.00;100618.00;3339598;86;99071;-85
2021/11/13 02:43:38;;;;;;;110.92;46.77;;;;;;;5.75;100.00;100625.09;3336033;86;99637;-85
2021/11/13 02:48:42;;;;;;;111.63;42.50;;;;;;;5.77;100.00;100623.36;3362866;86;99213;-85
2021/11/13 02:53:46;;;;;;;114.87;45.47;;;;;;;5.78;100.00;100620.29;3369674;85;99318;-84
2021/11/13 02:58:47;;;;;;;114.57;47.97;;;;;;;5.79;100.00;100619.15;3372109;85;99195;-85
2021/11/13 03:03:51;;;;;;;117.10;44.90;;;;;;;5.79;100.00;100620.52;3389754;84;98960;-85
2021/11/13 03:08:54;;;;;;;110.92;45.35;;;;;;;5.82;100.00;100619.07;3339805;86;99479;-85
2021/11/13 03:13:54;;;;;;;96.17;42.00;;;;;;;5.83;100.00;100622.83;3374269;85;99701;-85
2021/11/13 03:18:55;;;;;;;111.32;44.85;;;;;;;5.81;100.00;100614.75;3380770;85;99398;-85
2021/11/13 03:23:56;;;;;;;108.65;44.27;;;;;;;5.80;100.00;100615.34;3373292;85;99576;-85
2021/11/13 03:29:07;;;;;;;114.37;45.17;;;;;;;5.81;100.00;100610.66;3377138;85;99300;-85
2021/11/13 03:34:09;;;;;;;115.67;45.20;;;;;;;5.84;100.00;100621.69;3377373;85;99096;-85
2021/11/13 03:39:09;;;;;;;125.90;48.53;;;;;;;5.85;100.00;100619.19;3406605;85;99472;-84
2021/11/13 03:44:10;;;;;;;107.70;43.20;;;;;;;5.85;100.00;100610.98;3328379;86;99503;-83
2021/11/13 03:49:11;;;;;;;116.23;48.10;;;;;;;5.85;100.00;100613.72;3337609;86;99266;-85
2021/11/13 03:54:12;;;;;;;112.00;42.90;;;;;;;5.88;100.00;100619.87;3322037;86;99593;-85
2021/11/13 03:59:12;;;;;;;115.70;44.30;;;;;;;5.88;100.00;100625.34;3338130;86;99577;-84
2021/11/13 04:04:13;;;;;;;113.80;45.03;;;;;;;5.89;100.00;100614.64;3345411;86;99199;-84
2021/11/13 04:09:14;;;;;;;113.40;47.10;;;;;;;5.89;100.00;100614.64;3334311;86;99663;-84
2021/11/13 04:14:14;;;;;;;121.37;45.87;;;;;;;5.89;100.00;100617.37;3323698;87;99127;-85
2021/11/13 04:19:15;;;;;;;105.83;42.73;;;;;;;5.89;100.00;100605.08;3344114;85;99622;-85
2021/11/13 04:24:16;;;;;;;113.57;42.63;;;;;;;5.91;100.00;100606.11;3349547;86;99557;-85
2021/11/13 04:29:17;;;;;;;105.87;43.70;;;;;;;5.93;100.00;100603.27;3337916;85;99224;-85
2021/11/13 04:34:23;;;;;;;103.80;41.23;;;;;;;5.90;100.00;100611.35;3365120;86;99325;-85
2021/11/13 04:39:25;;;;;;;119.40;46.08;;;;;;;5.90;100.00;100606.66;3333048;86;98964;-85
2021/11/13 04:44:26;;;;;;;116.67;44.50;;;;;;;5.93;100.00;100612.83;3387433;85;99080;-85
2021/11/13 04:49:27;;;;;;;111.88;43.25;;;;;;;5.93;100.00;100607.92;3389684;85;99238;-84
2021/11/13 04:54:28;;;;;;;108.23;43.53;;;;;;;5.94;100.00;100605.44;3386920;84;99565;-85
2021/11/13 04:59:28;;;;;;;101.57;43.00;;;;;;;5.93;100.00;100614.75;3392502;85;99215;-85
2021/11/13 05:04:29;;;;;;;103.87;40.87;;;;;;;5.94;100.00;100623.20;3387527;85;99316;-86
2021/11/13 05:09:30;;;;;;;105.90;43.10;;;;;;;5.94;100.00;100616.37;3392574;85;99027;-85
2021/11/13 05:14:31;;;;;;;113.67;44.20;;;;;;;5.93;100.00;100597.80;3385344;84;99148;-85
2021/11/13 05:19:32;;;;;;;100.67;44.00;;;;;;;5.92;100.00;100603.60;3355850;86;99268;-85
2021/11/13 05:24:34;;;;;;;96.20;39.53;;;;;;;5.93;100.00;100601.90;3385620;84;99233;-87
2021/11/13 05:29:35;;;;;;;112.60;43.80;;;;;;;5.94;100.00;100604.86;3390588;84;99189;-85
2021/11/13 05:34:36;;;;;;;93.43;37.90;;;;;;;5.94;100.00;100595.88;3321784;86;99308;-85
2021/11/13 05:39:37;;;;;;;100.83;41.43;;;;;;;5.94;100.00;100584.95;3367896;86;98722;-85
2021/11/13 05:44:37;;;;;;;98.37;39.13;;;;;;;5.95;100.00;100599.61;3372646;85;99149;-85
2021/11/13 05:49:38;;;;;;;113.43;43.40;;;;;;;5.94;100.00;100603.48;3368267;85;99073;-85
2021/11/13 05:54:39;;;;;;;112.07;41.83;;;;;;;5.96;100.00;100602.59;3365970;85;99547;-86
2021/11/13 05:59:40;;;;;;;113.50;44.97;;;;;;;5.96;100.00;100612.16;3391675;85;99274;-85
2021/11/13 06:04:41;;;;;;;109.85;44.80;;;;;;;5.98;100.00;100607.14;3386667;85;98947;-85
2021/11/13 06:09:42;;;;;;;103.83;43.97;;;;;;;5.99;100.00;100614.75;3384403;85;99080;-85
2021/11/13 06:14:42;;;;;;;106.53;44.43;;;;;;;5.99;100.00;100618.29;3371583;85;98659;-85
2021/11/13 06:19:43;;;;;;;104.63;43.03;;;;;;;5.97;100.00;100608.84;3380400;85;99184;-85
2021/11/13 06:24:44;;;;;;;110.25;42.45;;;;;;;5.97;100.00;100612.38;3377203;85;99194;-85
2021/11/13 06:29:46;;;;;;;109.90;43.60;;;;;;;5.96;100.00;100602.59;3366436;85;99147;-85
2021/11/13 06:34:46;;;;;;;114.90;45.13;;;;;;;5.95;100.00;100600.98;3387719;85;99296;-85
2021/11/13 06:39:47;;;;;;;101.67;40.47;;;;;;;5.97;100.00;100601.45;3353041;86;36119;-85
2021/11/13 06:44:49;;;;;;;114.27;45.70;;;;;;;5.97;100.00;100598.72;3409728;84;99197;-85
2021/11/13 06:49:50;;;;;;;108.13;43.10;;;;;;;5.96;100.00;100597.69;3404790;85;99239;-85
2021/11/13 06:54:51;;;;;;;110.73;44.07;;;;;;;5.96;100.00;100593.03;3401226;85;99209;-86
2021/11/13 06:59:52;;;;;;;108.13;44.47;;;;;;;5.96;100.00;100590.86;3417979;85;99619;-85
2021/11/13 07:04:53;;;;;;;95.50;40.17;;;;;;;5.95;100.00;100596.10;3407491;85;99182;-85
2021/11/13 07:09:53;;;;;;;105.00;42.33;;;;;;;5.97;100.00;100601.45;3414856;85;39785;-85
2021/11/13 07:14:54;;;;;;;108.33;43.07;;;;;;;6.00;100.00;100605.44;3410412;85;99026;-85
2021/11/13 07:19:55;;;;;;;104.33;42.67;;;;;;;6.02;100.00;100612.71;3414287;85;99347;-85
2021/11/13 07:24:56;;;;;;;104.63;42.17;;;;;;;6.01;100.00;100598.83;3408874;85;99244;-85
2021/11/13 07:29:58;;;;;;;105.63;42.70;;;;;;;6.02;100.00;100599.05;3417406;85;99194;-86
2021/11/13 07:34:59;;;;;;;108.27;43.30;;;;;;;6.03;100.00;100606.11;3406385;85;99264;-86
2021/11/13 07:40:00;;;;;;;106.93;45.10;;;;;;;6.05;100.00;100577.30;3401859;85;32820;-85
2021/11/13 07:45:04;;;;;;;104.50;44.33;;;;;;;6.09;100.00;100613.73;3387632;84;99106;-85
2021/11/13 07:50:04;;;;;;;110.93;46.77;;;;;;;6.13;100.00;100599.63;3395222;84;99165;-84
2021/11/13 07:55:06;;;;;;;113.50;47.67;;;;;;;6.10;100.00;100588.00;3328135;86;99363;-86
2021/11/13 08:00:10;;;;;;;103.83;45.17;;;;;;;6.13;100.00;100595.53;3337949;87;99185;-86
2021/11/13 08:05:14;;;;;;;118.20;49.48;;;;;;;6.15;100.00;100612.36;3353767;84;99283;-87
2021/11/13 08:10:15;;;;;;;111.25;44.05;;;;;;;6.18;100.00;100628.64;3335498;86;34820;-86
2021/11/13 08:15:17;;;;;;;108.17;44.60;;;;;;;6.20;100.00;100624.43;3384819;85;99381;-87
2021/11/13 08:20:18;;;;;;;109.63;46.17;;;;;;;6.22;100.00;100618.62;3335360;85;99100;-87
2021/11/13 08:25:19;;;;;;;111.37;46.00;;;;;;;6.25;100.00;100611.91;3400290;85;99578;-86
2021/11/13 08:30:21;;;;;;;117.17;49.97;;;;;;;6.30;100.00;100653.23;3402764;85;99946;-86
2021/11/13 08:35:21;;;;;;;108.97;46.30;;;;;;;6.31;100.00;100641.15;3360256;86;99304;-87
2021/11/13 08:40:22;;;;;;;117.57;50.33;;;;;;;6.34;100.00;100646.72;3422073;85;37904;-86
2021/11/13 08:45:23;;;;;;;107.23;46.87;;;;;;;6.36;100.00;100629.42;3413009;83;99109;-86
2021/11/13 08:50:27;;;;;;;103.92;45.38;;;;;;;6.41;100.00;100623.73;3420407;85;99304;-87
2021/11/13 08:55:32;;;;;;;106.55;46.83;;;;;;;6.41;100.00;100615.53;3409691;85;99259;-87
2021/11/13 09:00:50;;;;;;;107.30;44.25;;;;;;;6.47;100.00;100618.80;3377651;86;99272;-88
2021/11/13 09:05:54;;;;;;;105.45;44.73;;;;;;;6.50;100.00;100617.54;3401089;84;99330;-86
2021/11/13 09:10:56;;;;;;;98.67;45.92;;;;;;;6.53;100.00;100617.42;3424306;84;99672;-87
2021/11/13 09:16:01;;;;;;;97.67;44.40;;;;;;;6.58;99.99;100621.28;3417631;84;98947;-87
2021/11/13 09:21:02;;;;;;;103.02;47.80;;;;;;;6.61;100.00;100639.75;3432691;84;98771;-86
2021/11/13 09:26:06;;;;;;;103.27;45.77;;;;;;;6.62;99.33;100639.41;3415536;84;99312;-86
2021/11/13 09:31:07;;;;;;;104.60;43.23;;;;;;;6.64;99.59;100622.63;3438768;83;99084;-89
2021/11/13 09:36:08;;;;;;;109.87;47.07;;;;;;;6.70;99.71;100615.81;3418618;84;99085;-87
2021/11/13 09:41:09;;;;;;;97.90;46.63;;;;;;;6.77;99.39;100621.48;3395973;85;99495;-87
2021/11/13 09:46:12;;;;;;;104.57;48.67;;;;;;;6.83;99.17;100622.83;3423320;84;98920;-90
2021/11/13 09:51:12;;;;;;;112.80;48.93;;;;;;;6.86;98.79;100628.39;3346182;86;109998;-85
2021/11/13 09:56:14;;;;;;;107.67;49.83;;;;;;;6.85;98.29;100633.64;3387951;85;99166;-86
2021/11/13 10:01:15;;;;;;;108.13;49.93;;;;;;;6.86;98.55;100634.42;3392578;85;99107;-84
2021/11/13 10:06:16;;;;;;;111.75;50.10;;;;;;;6.87;98.04;100635.45;3415693;84;99086;-85
2021/11/13 10:11:22;;;;;;;103.27;48.57;;;;;;;6.86;97.59;100632.49;3420820;84;99120;-86
2021/11/13 10:16:34;;;;;;;104.40;50.28;;;;;;;6.79;97.57;100624.09;3390609;85;49594;-86
2021/11/13 10:21:40;;;;;;;103.93;49.40;;;;;;;6.82;97.78;100623.97;3382542;85;105886;-88
2021/11/13 10:26:45;;;;;;;108.20;48.83;;;;;;;6.92;97.97;100615.28;3391390;85;99048;-87
2021/11/13 10:31:56;;;;;;;103.20;47.38;;;;;;;6.97;97.32;100629.49;3390044;85;99594;-88
2021/11/13 10:37:03;;;;;;;102.38;48.23;;;;;;;7.02;97.26;100621.03;3370747;85;99067;-87
2021/11/13 10:42:18;;;;;;;96.25;44.80;;;;;;;7.07;97.25;100608.48;3380768;85;99266;-88
2021/11/13 10:47:27;;;;;;;105.60;48.80;;;;;;;7.19;97.58;100613.11;3379857;85;98887;-87
2021/11/13 10:52:28;;;;;;;97.37;44.48;;;;;;;7.31;97.24;100603.46;3381226;85;98999;-88
2021/11/13 10:57:31;;;;;;;99.20;46.13;;;;;;;7.42;97.42;100616.86;3389710;85;98724;-87
2021/11/13 11:02:32;;;;;;;99.77;46.83;;;;;;;7.48;96.86;100620.33;3383937;84;99119;-87
2021/11/13 11:07:33;;;;;;;96.97;46.57;;;;;;;7.55;96.40;100617.80;3387498;85;99185;-88
2021/11/13 11:12:37;;;;;;;99.00;47.20;;;;;;;7.53;96.20;100614.59;3381350;85;98919;-88
2021/11/13 11:17:39;;;;;;;99.05;47.00;;;;;;;7.59;95.96;100618.67;3388932;85;98871;-88
2021/11/13 11:22:41;;;;;;;87.57;43.87;;;;;;;7.60;95.80;100612.06;3377746;85;99197;-86
2021/11/13 11:27:49;;;;;;;97.87;44.50;;;;;;;7.60;95.46;100618.11;3385826;85;98575;-88
2021/11/13 11:32:56;;;;;;;91.65;43.35;;;;;;;7.63;95.48;100605.09;3381462;86;98816;-88
2021/11/13 11:38:06;;;;;;;91.77;43.83;;;;;;;7.64;95.30;100591.02;3347001;85;98880;-87
2021/11/13 11:43:09;;;;;;;90.28;41.85;;;;;;;7.71;95.25;100595.33;3338380;86;99303;-87
2021/11/13 11:48:16;;;;;;;82.62;43.08;;;;;;;7.81;95.62;100589.28;3346679;86;98950;-87
2021/11/13 11:53:17;;;;;;;85.42;41.98;;;;;;;7.91;95.31;100590.72;3339536;86;98921;-88
2021/11/13 11:58:24;;;;;;;88.83;44.23;;;;;;;7.95;95.07;100589.64;3346404;87;64597;-89
2021/11/13 12:03:38;;;;;;;104.97;52.10;;;;;;;7.97;95.11;100579.70;3339543;86;98934;-88
2021/11/13 12:08:39;;;;;;;89.27;42.50;;;;;;;8.09;95.23;100576.84;3351097;86;98841;-88
2021/11/13 12:13:40;;;;;;;81.77;40.23;;;;;;;8.21;94.53;100581.69;3339133;84;98875;-87
2021/11/13 12:18:45;;;;;;;78.27;38.63;;;;;;;8.20;93.27;100572.44;3313764;87;99013;-87
2021/11/13 12:23:50;;;;;;;80.87;40.23;;;;;;;8.25;93.91;100573.53;3374677;86;98909;-87
2021/11/13 12:28:55;;;;;;;79.53;38.42;;;;;;;8.29;93.58;100568.33;3346269;86;98894;-86
2021/11/13 12:34:04;;;;;;;74.35;39.38;;;;;;;8.32;92.95;100569.00;3339129;86;98613;-87
2021/11/13 12:39:10;;;;;;;89.60;43.20;;;;;;;8.35;93.10;100575.72;3397451;85;98719;-87
2021/11/13 12:44:33;;;;;;;82.12;39.73;;;;;;;8.41;92.98;100573.69;3331364;86;98817;-87
2021/11/13 12:49:45;;;;;;;86.22;42.17;;;;;;;8.47;92.94;100563.25;3342855;87;98942;-88
2021/11/13 12:55:16;;;;;;;80.70;39.92;;;;;;;8.54;93.07;100574.36;3385589;85;98935;-87
2021/11/13 13:00:43;;;;;;;84.15;41.53;;;;;;;8.54;91.93;100569.68;3330520;87;99002;-86
2021/11/13 13:05:45;;;;;;;84.52;42.65;;;;;;;8.48;91.32;100572.50;3392849;85;98951;-88
2021/11/13 13:10:46;;;;;;;83.10;41.27;;;;;;;8.47;91.57;100579.14;3398856;85;98915;-88
2021/11/13 13:15:57;;;;;;;88.47;43.70;;;;;;;8.42;91.03;100586.27;3388933;85;98349;-88
2021/11/13 13:21:00;;;;;;;81.70;40.48;;;;;;;8.35;91.16;100582.58;3394359;85;98611;-88
2021/11/13 13:26:04;;;;;;;81.00;41.15;;;;;;;8.37;91.47;100593.97;3384468;85;102698;-88
2021/11/13 13:31:09;;;;;;;82.50;40.13;;;;;;;8.38;91.74;100585.95;3397913;85;99174;-88
2021/11/13 13:36:10;;;;;;;82.83;41.67;;;;;;;8.43;91.69;100598.02;3406467;84;98975;-87
2021/11/13 13:41:10;;;;;;;84.25;41.65;;;;;;;8.40;91.19;100597.38;3440911;84;98970;-89
2021/11/13 13:46:18;;;;;;;78.37;39.87;;;;;;;8.35;91.26;100590.80;3431403;84;98226;-87
2021/11/13 13:51:29;;;;;;;79.23;40.20;;;;;;;8.31;91.05;100603.07;3435783;84;99183;-85
2021/11/13 13:56:41;;;;;;;80.93;39.73;;;;;;;8.26;91.10;100598.42;3400180;85;99158;-88
2021/11/13 14:01:53;;;;;;;88.35;42.33;;;;;;;8.32;91.75;100590.13;3427098;84;98852;-85
2021/11/13 14:06:58;;;;;;;79.32;38.85;;;;;;;8.33;91.14;100587.04;3436469;84;98921;-87
2021/11/13 14:11:59;;;;;;;72.67;38.05;;;;;;;8.27;91.20;100593.95;3435950;83;99280;-86
2021/11/13 14:17:01;;;;;;;78.15;40.65;;;;;;;8.27;91.37;100590.41;3414311;85;98127;-86
2021/11/13 14:22:04;;;;;;;75.33;40.20;;;;;;;8.24;91.50;100588.40;3408508;85;98562;-87
2021/11/13 14:27:10;;;;;;;79.93;40.63;;;;;;;8.22;91.45;100592.86;3409725;85;98807;-86
2021/11/13 14:32:14;;;;;;;73.83;37.53;;;;;;;8.15;91.33;100581.71;3407275;85;100661;-87
2021/11/13 14:37:17;;;;;;;74.00;39.18;;;;;;;8.08;91.49;100585.64;3402840;85;99084;-88
2021/11/13 14:42:21;;;;;;;79.25;41.53;;;;;;;7.99;91.54;100579.57;3387160;85;98966;-88
2021/11/13 14:47:25;;;;;;;81.30;41.57;;;;;;;7.91;91.40;100577.02;3393982;85;98899;-88
2021/11/13 14:52:38;;;;;;;83.60;44.90;;;;;;;7.77;91.46;100582.95;3388159;85;98508;-86
2021/11/13 14:57:46;;;;;;;89.40;46.85;;;;;;;7.64;91.67;100587.50;3392637;85;98465;-89
2021/11/13 15:02:47;;;;;;;90.73;46.27;;;;;;;7.53;91.86;100582.33;3388046;85;98829;-88
2021/11/13 15:07:48;;;;;;;99.50;52.87;;;;;;;7.41;92.13;100587.89;3396096;85;98829;-89
2021/11/13 15:12:49;;;;;;;85.70;48.43;;;;;;;7.31;92.36;100589.17;3385726;85;98828;-89
2021/11/13 15:17:50;;;;;;;93.73;47.87;;;;;;;7.23;92.70;100594.81;3391601;85;99299;-88
2021/11/13 15:22:58;;;;;;;90.43;49.83;;;;;;;7.13;92.88;100591.22;3387943;85;99306;-89
2021/11/13 15:28:07;;;;;;;92.30;47.95;;;;;;;7.00;93.09;100597.34;3396357;85;34946;-87
2021/11/13 15:33:15;;;;;;;102.60;51.83;;;;;;;6.91;93.35;100598.61;3388418;85;98823;-88
2021/11/13 15:38:21;;;;;;;103.05;51.70;;;;;;;6.79;93.51;100588.53;3387529;85;98923;-87
2021/11/13 15:43:24;;;;;;;118.50;57.53;;;;;;;6.73;93.87;100590.48;3389102;84;99365;-89
2021/11/13 15:48:27;;;;;;;120.00;57.10;;;;;;;6.64;93.97;100592.55;3388211;85;99474;-89
2021/11/13 15:53:45;;;;;;;140.85;67.17;;;;;;;6.50;94.13;100589.42;3384215;85;99415;-87
2021/11/13 15:58:50;;;;;;;134.15;60.43;;;;;;;6.44;94.33;100587.48;3380976;85;99033;-87
2021/11/13 16:03:50;;;;;;;129.95;61.63;;;;;;;6.39;94.74;100576.00;3384470;85;99138;-87
2021/11/13 16:08:51;;;;;;;118.95;57.10;;;;;;;6.35;94.92;100584.66;3380189;84;98939;-88
2021/11/13 16:13:53;;;;;;;105.30;52.00;;;;;;;6.29;95.03;100588.22;3381034;85;99103;-88
2021/11/13 16:18:55;;;;;;;107.85;49.20;;;;;;;6.23;95.07;100592.30;3390332;84;99073;-87
2021/11/13 16:23:59;;;;;;;108.63;51.18;;;;;;;6.19;95.49;100604.27;3384283;84;99069;-87
2021/11/13 16:29:01;;;;;;;107.92;51.20;;;;;;;6.15;95.58;100598.70;3389282;85;99416;-87
2021/11/13 16:34:02;;;;;;;101.00;48.17;;;;;;;6.12;95.79;100608.16;3383138;85;98916;-87
2021/11/13 16:39:04;;;;;;;98.93;47.60;;;;;;;6.09;96.03;100615.66;3379761;85;99541;-87
2021/11/13 16:44:05;;;;;;;105.63;53.43;;;;;;;6.02;96.19;100617.62;3364766;86;98855;-87
2021/11/13 16:49:09;;;;;;;94.97;48.13;;;;;;;5.98;96.45;100617.25;3392239;85;99069;-88
2021/11/13 16:54:13;;;;;;;102.67;48.73;;;;;;;5.93;96.75;100628.41;3389336;85;98979;-87
2021/11/13 16:59:16;;;;;;;102.87;50.70;;;;;;;5.86;96.94;100620.80;3392340;85;99481;-88
2021/11/13 17:04:17;;;;;;;109.53;51.93;;;;;;;5.81;97.09;100628.41;3392755;85;98693;-88
2021/11/13 17:09:17;;;;;;;106.47;53.50;;;;;;;5.76;97.43;100634.86;3391355;85;99043;-88
2021/11/13 17:14:18;;;;;;;106.60;56.87;;;;;;;5.71;97.45;100639.18;3389275;85;99099;-88
2021/11/13 17:19:19;;;;;;;109.17;55.33;;;;;;;5.67;97.84;100643.72;3395362;85;99437;-88
2021/11/13 17:24:21;;;;;;;106.03;53.78;;;;;;;5.62;97.96;100634.38;3361913;85;99480;-88
2021/11/13 17:29:22;;;;;;;124.17;62.27;;;;;;;5.56;98.01;100640.41;3394916;85;99463;-88
2021/11/13 17:34:23;;;;;;;125.93;61.20;;;;;;;5.49;97.86;100641.52;3373977;85;99394;-89
2021/11/13 17:39:24;;;;;;;115.73;59.37;;;;;;;5.46;98.30;100639.48;3332216;85;99314;-88
2021/11/13 17:44:24;;;;;;;116.27;58.37;;;;;;;5.43;98.37;100648.33;3311108;87;98978;-88
2021/11/13 17:49:25;;;;;;;118.40;60.40;;;;;;;5.42;98.66;100650.83;3418212;85;98983;-88
2021/11/13 17:54:26;;;;;;;124.23;61.50;;;;;;;5.36;98.49;100652.96;3410320;85;99051;-88
2021/11/13 17:59:27;;;;;;;126.03;61.10;;;;;;;5.31;98.57;100654.56;3427357;83;99090;-88
2021/11/13 18:04:28;;;;;;;140.90;66.77;;;;;;;5.29;98.98;100659.54;3417155;84;99094;-88
2021/11/13 18:09:29;;;;;;;131.37;65.10;;;;;;;5.30;98.93;100658.98;3420173;85;98923;-88
2021/11/13 18:14:30;;;;;;;113.97;57.40;;;;;;;5.29;99.16;100657.39;3418809;85;98997;-88
2021/11/13 18:19:30;;;;;;;134.00;64.40;;;;;;;5.28;99.38;100660.69;3392256;85;99098;-87
2021/11/13 18:24:31;;;;;;;119.90;60.13;;;;;;;5.27;99.32;100667.83;3413444;84;99008;-88
2021/11/13 18:29:32;;;;;;;109.07;52.20;;;;;;;5.23;99.26;100674.53;3419600;85;98987;-88
2021/11/13 18:34:33;;;;;;;109.17;52.07;;;;;;;5.22;99.71;100674.30;3419402;85;98685;-89
2021/11/13 18:39:33;;;;;;;99.27;52.70;;;;;;;5.21;99.71;100678.17;3407100;84;98833;-89
2021/11/13 18:44:34;;;;;;;105.83;52.58;;;;;;;5.21;99.90;100677.36;3386821;85;98816;-89
2021/11/13 18:49:35;;;;;;;107.23;53.57;;;;;;;5.20;99.73;100679.86;3338644;87;98971;-89
2021/11/13 18:54:36;;;;;;;119.77;53.73;;;;;;;5.20;99.95;100680.67;3390402;85;98963;-90
2021/11/13 18:59:37;;;;;;;111.23;52.30;;;;;;;5.22;99.80;100684.41;3403128;85;99099;-89
2021/11/13 19:04:39;;;;;;;109.67;54.37;;;;;;;5.23;100.00;100684.66;3390980;84;99005;-88
2021/11/13 19:09:40;;;;;;;107.60;53.07;;;;;;;5.24;100.00;100682.16;3387833;85;98812;-90
2021/11/13 19:14:41;;;;;;;107.93;51.50;;;;;;;5.25;100.00;100685.89;3326957;87;99116;-88
2021/11/13 19:19:42;;;;;;;109.10;51.40;;;;;;;5.25;100.00;100696.81;3396287;85;98461;-89
2021/11/13 19:24:44;;;;;;;114.97;53.07;;;;;;;5.27;100.00;100693.75;3390593;85;99227;-89
2021/11/13 19:29:45;;;;;;;102.70;48.77;;;;;;;5.28;100.00;100700.80;3334170;87;98396;-88
2021/11/13 19:34:45;;;;;;;105.97;51.63;;;;;;;5.28;100.00;100702.98;3391754;85;99167;-88
2021/11/13 19:39:46;;;;;;;109.20;51.97;;;;;;;5.29;100.00;100699.11;3385645;85;32596;-88
2021/11/13 19:44:47;;;;;;;99.33;48.20;;;;;;;5.31;100.00;100700.14;3383355;84;99275;-88
2021/11/13 19:49:48;;;;;;;116.27;52.77;;;;;;;5.34;100.00;100702.22;3357378;85;99054;-88
2021/11/13 19:54:49;;;;;;;120.07;54.63;;;;;;;5.37;100.00;100705.63;3382912;84;99659;-90
2021/11/13 19:59:54;;;;;;;114.43;53.37;;;;;;;5.38;100.00;100701.20;3332056;86;99836;-87
2021/11/13 20:04:55;;;;;;;125.10;56.50;;;;;;;5.38;100.00;100709.39;3398495;85;99572;-89
2021/11/13 20:09:57;;;;;;;117.93;54.17;;;;;;;5.38;100.00;100710.75;3338802;87;32414;-88
2021/11/13 20:14:58;;;;;;;122.87;56.80;;;;;;;5.38;100.00;100712.67;3404498;84;99072;-87
2021/11/13 20:19:59;;;;;;;123.63;58.33;;;;;;;5.37;100.00;100711.89;3406155;85;99250;-87
2021/11/13 20:25:03;;;;;;;124.05;57.73;;;;;;;5.38;100.00;100713.48;3391540;85;99277;-89
2021/11/13 20:30:06;;;;;;;132.57;59.73;;;;;;;5.37;100.00;100711.08;3404142;85;99242;-92
2021/11/13 20:35:11;;;;;;;122.07;55.63;;;;;;;5.36;100.00;100720.41;3396022;85;99249;-92
2021/11/13 20:40:12;;;;;;;126.63;58.37;;;;;;;5.32;100.00;100725.74;3403843;85;28559;-91
2021/11/13 20:45:15;;;;;;;138.50;65.03;;;;;;;5.31;100.00;100728.80;3399711;84;99012;-93
2021/11/13 20:50:20;;;;;;;138.37;61.20;;;;;;;5.28;100.00;100732.99;3397074;84;99039;-89
2021/11/13 20:55:26;;;;;;;138.37;67.55;;;;;;;5.28;100.00;100726.73;3396771;84;99378;-89
2021/11/13 21:00:32;;;;;;;141.88;62.40;;;;;;;5.23;100.00;100733.20;3406965;84;99778;-86
2021/11/13 21:05:35;;;;;;;141.10;62.85;;;;;;;5.18;100.00;100732.03;3341232;86;99178;-85
2021/11/13 21:10:36;;;;;;;135.00;60.53;;;;;;;5.16;100.00;100735.67;3354029;86;26611;-87
2021/11/13 21:15:37;;;;;;;128.60;57.65;;;;;;;5.15;100.00;100745.55;3399083;84;99015;-87
2021/11/13 21:20:38;;;;;;;137.93;60.90;;;;;;;5.13;100.00;100745.87;3413572;85;99063;-87
2021/11/13 21:25:40;;;;;;;138.60;61.87;;;;;;;5.11;100.00;100736.42;3408117;84;99142;-87
2021/11/13 21:30:42;;;;;;;127.62;60.38;;;;;;;5.09;100.00;100740.05;3412395;85;99186;-85
2021/11/13 21:35:44;;;;;;;126.70;58.80;;;;;;;5.08;100.00;100735.16;3388110;85;99175;-86
2021/11/13 21:40:45;;;;;;;119.50;59.23;;;;;;;5.06;100.00;100736.06;3394513;84;99218;-86
2021/11/13 21:45:46;;;;;;;139.23;61.57;;;;;;;5.01;100.00;100740.91;3391777;85;98683;-86
2021/11/13 21:50:48;;;;;;;131.87;61.18;;;;;;;4.99;100.00;100745.91;3394722;85;99059;-86
2021/11/13 21:55:50;;;;;;;132.07;60.38;;;;;;;4.96;100.00;100741.91;3320400;86;99290;-87
2021/11/13 22:00:51;;;;;;;126.57;62.47;;;;;;;4.93;100.00;100745.87;3387554;84;99177;-87
2021/11/13 22:05:53;;;;;;;134.53;63.40;;;;;;;4.93;100.00;100754.05;3382563;85;99314;-87
2021/11/13 22:10:53;;;;;;;146.83;64.73;;;;;;;4.87;100.00;100752.09;3360545;85;98504;-86
2021/11/13 22:15:54;;;;;;;142.63;64.83;;;;;;;4.86;100.00;100753.20;3387102;85;98967;-87
2021/11/13 22:20:55;;;;;;;142.07;65.53;;;;;;;4.83;100.00;100755.80;3391756;85;99505;-86
2021/11/13 22:25:57;;;;;;;148.00;67.33;;;;;;;4.80;100.00;100756.48;3382450;85;99378;-86
2021/11/13 22:31:00;;;;;;;151.57;67.97;;;;;;;4.77;100.00;100767.48;3374152;86;99313;-86
2021/11/13 22:36:03;;;;;;;145.73;67.10;;;;;;;4.74;100.00;100769.48;3381753;84;99366;-86
2021/11/13 22:41:06;;;;;;;146.07;67.07;;;;;;;4.70;100.00;100771.27;3389682;85;99208;-86
2021/11/13 22:46:07;;;;;;;147.30;64.72;;;;;;;4.66;100.00;100774.98;3381460;84;98713;-87
2021/11/13 22:51:08;;;;;;;138.47;63.07;;;;;;;4.61;100.00;100775.98;3391235;84;99068;-87